Time;durP1;ratioP1;P1;durP2;ratioP2;P2;SDS_P1;SDS_P2;PMS_P1;PMS_P2;Temp;Humidity;BMP_temperature;BMP_pressure;BME280_temperature;BME280_humidity;BME280_pressure;Samples;Min_cycle;Max_cycle;Signal;HPM_P1;HPM_P2
2021/05/26 00:01:57;;;;;;;4.37;2.78;;;;;;;23.40;48.27;101322.88;144992;603;6002;-74
2021/05/26 00:04:23;;;;;;;5.32;2.80;;;;;;;23.40;48.74;101317.59;144992;570;6002;-75
2021/05/26 00:06:50;;;;;;;4.87;2.62;;;;;;;23.33;48.46;101321.22;144992;600;6002;-77
2021/05/26 00:09:16;;;;;;;6.90;2.85;;;;;;;23.28;48.52;101320.41;144992;589;6002;-76
2021/05/26 00:11:43;;;;;;;5.50;2.70;;;;;;;23.17;48.83;101323.19;144992;594;6002;-77
2021/05/26 00:14:09;;;;;;;5.87;2.50;;;;;;;23.12;49.20;101325.03;144992;595;6002;-76
2021/05/26 00:16:37;;;;;;;6.80;2.40;;;;;;;23.10;49.24;101319.75;144992;594;6002;-76
2021/05/26 00:19:06;;;;;;;5.00;3.03;;;;;;;23.08;48.80;101323.28;144992;569;6002;-76
2021/05/26 00:21:34;;;;;;;5.62;2.42;;;;;;;23.10;48.93;101322.38;144992;592;6002;-75
2021/05/26 00:24:00;;;;;;;4.60;2.67;;;;;;;23.14;49.18;101321.44;144992;579;6002;-74
2021/05/26 00:26:26;;;;;;;4.82;2.60;;;;;;;23.17;48.84;101325.81;144992;568;6002;-75
2021/05/26 00:28:55;;;;;;;6.47;2.62;;;;;;;23.20;48.45;101322.28;144992;570;6002;-76
2021/05/26 00:31:23;;;;;;;5.45;2.40;;;;;;;23.21;48.42;101324.91;144992;609;6002;-74
2021/05/26 00:33:50;;;;;;;4.35;2.53;;;;;;;23.22;48.24;101324.00;144992;601;6002;-74
2021/05/26 00:36:17;;;;;;;5.82;2.85;;;;;;;23.23;48.50;101316.94;144992;593;6002;-76
2021/05/26 00:38:44;;;;;;;5.07;2.90;;;;;;;23.24;48.34;101306.34;144992;584;6002;-76
2021/05/26 00:41:11;;;;;;;6.22;2.67;;;;;;;23.21;48.34;101309.03;144992;576;6002;-75
2021/05/26 00:43:38;;;;;;;4.30;2.80;;;;;;;23.21;48.56;101305.47;144992;570;6002;-74
2021/05/26 00:46:04;;;;;;;4.97;2.90;;;;;;;23.22;48.61;101307.22;144992;577;6002;-75
2021/05/26 00:48:31;;;;;;;4.30;2.80;;;;;;;23.21;48.56;101305.47;144992;570;6002;-76
2021/05/26 00:50:57;;;;;;;5.25;2.70;;;;;;;23.21;48.71;101297.53;144992;564;6002;-75
2021/05/26 00:53:27;;;;;;;4.40;2.90;;;;;;;23.22;48.48;101294.00;144992;615;6002;-74
2021/05/26 00:55:53;;;;;;;4.57;3.42;;;;;;;23.21;48.21;101285.19;144992;693;6002;-75
2021/05/26 00:58:23;;;;;;;5.65;3.08;;;;;;;23.23;48.27;101290.47;144992;579;6002;-75
2021/05/26 01:00:50;;;;;;;5.55;3.10;;;;;;;23.22;48.49;101281.63;144992;565;6002;-75
2021/05/26 01:03:16;;;;;;;4.53;2.97;;;;;;;23.24;48.16;101289.53;144992;563;6002;-76
2021/05/26 01:05:43;;;;;;;5.37;2.70;;;;;;;23.24;48.21;101281.59;144992;589;6002;-75
2021/05/26 01:08:10;;;;;;;3.92;2.95;;;;;;;23.23;48.70;101279.88;144992;595;6002;-74
2021/05/26 01:10:36;;;;;;;6.22;2.97;;;;;;;23.21;48.08;101279.88;144992;564;6002;-75
2021/05/26 01:13:03;;;;;;;3.58;2.72;;;;;;;23.16;48.65;101284.34;144992;554;6002;-76
2021/05/26 01:15:31;;;;;;;6.55;2.97;;;;;;;23.15;48.34;101280.84;144992;625;6002;-75
2021/05/26 01:17:57;;;;;;;6.87;3.50;;;;;;;23.19;48.78;101281.66;144992;582;6002;-76
2021/05/26 01:20:28;;;;;;;6.40;2.90;;;;;;;23.24;48.45;101286.91;144992;636;6002;-76
2021/05/26 01:23:00;;;;;;;5.78;3.12;;;;;;;23.26;48.70;101287.78;144992;569;6002;-76
2021/05/26 01:25:28;;;;;;;6.65;2.83;;;;;;;23.27;48.59;101287.72;144992;607;6002;-74
2021/05/26 01:27:57;;;;;;;6.22;3.12;;;;;;;23.27;48.31;101281.56;144992;584;6002;-75
2021/05/26 01:30:23;;;;;;;5.68;3.42;;;;;;;23.17;49.01;101280.81;144992;576;6002;-75
2021/05/26 01:32:53;;;;;;;6.70;3.85;;;;;;;23.13;48.61;101287.03;144992;604;6002;-75
2021/05/26 01:35:20;;;;;;;5.72;3.10;;;;;;;23.12;48.73;101285.31;144992;609;6002;-75
2021/05/26 01:37:48;;;;;;;3.87;2.87;;;;;;;23.10;48.73;101287.97;144992;599;6002;-75
2021/05/26 01:40:17;;;;;;;7.25;3.40;;;;;;;23.08;48.72;101281.81;144992;615;6002;-74
2021/05/26 01:42:45;;;;;;;9.02;3.50;;;;;;;23.09;48.77;101288.84;144992;573;6002;-75
2021/05/26 01:45:14;;;;;;;4.60;3.17;;;;;;;23.09;48.62;101280.03;144992;565;6002;-76
2021/05/26 01:47:44;;;;;;;7.53;3.15;;;;;;;23.07;49.20;101280.03;144992;569;6002;-76
2021/05/26 01:50:21;;;;;;;9.25;3.25;;;;;;;23.04;49.18;101284.50;144992;647;6002;-75
2021/05/26 01:52:58;;;;;;;6.43;2.97;;;;;;;23.06;48.94;101278.25;144992;617;6011;-76
2021/05/26 01:55:25;;;;;;;5.05;3.10;;;;;;;23.06;48.65;101272.97;144992;585;6002;-76
2021/05/26 01:57:52;;;;;;;5.32;2.87;;;;;;;23.07;48.76;101274.72;144991;570;6002;-76
2021/05/26 02:00:20;;;;;;;6.85;2.97;;;;;;;23.07;48.96;101264.16;144992;569;6002;-76
2021/05/26 02:02:48;;;;;;;6.03;2.80;;;;;;;23.07;48.51;101271.22;144992;573;6002;-75
2021/05/26 02:05:16;;;;;;;8.00;3.72;;;;;;;23.02;48.54;101271.28;144992;621;6002;-75
2021/05/26 02:07:42;;;;;;;5.53;3.40;;;;;;;23.00;49.13;101262.47;144992;579;6002;-75
2021/05/26 02:10:12;;;;;;;8.15;3.80;;;;;;;22.99;48.73;101258.06;144992;569;6002;-75
2021/05/26 02:12:39;;;;;;;9.40;3.90;;;;;;;22.95;48.59;101257.22;144992;632;6002;-76
2021/05/26 02:15:10;;;;;;;10.10;4.03;;;;;;;22.95;49.26;101265.16;144992;569;6002;-76
2021/05/26 02:17:36;;;;;;;7.80;3.50;;;;;;;22.93;49.28;101258.16;144992;613;6002;-76
2021/05/26 02:20:04;;;;;;;7.00;3.50;;;;;;;22.89;48.96;101257.31;144992;587;6002;-74
2021/05/26 02:22:31;;;;;;;6.28;3.22;;;;;;;22.89;49.29;101257.31;144992;568;6002;-75
2021/05/26 02:25:00;;;;;;;7.72;3.35;;;;;;;22.89;49.44;101259.97;144992;593;6002;-77
2021/05/26 02:27:27;;;;;;;7.20;3.10;;;;;;;22.83;49.47;101254.75;144992;578;6002;-75
2021/05/26 02:29:54;;;;;;;7.12;3.08;;;;;;;22.76;49.04;101253.94;144992;641;6002;-76
2021/05/26 02:32:22;;;;;;;8.70;3.28;;;;;;;22.70;49.34;101247.84;144992;629;6002;-76
2021/05/26 02:34:48;;;;;;;6.50;2.75;;;;;;;22.61;49.99;101247.06;144992;631;6002;-75
2021/05/26 02:37:15;;;;;;;5.82;2.60;;;;;;;22.62;49.65;101251.47;144992;597;6002;-75
2021/05/26 02:39:41;;;;;;;4.90;2.83;;;;;;;22.55;49.56;101256.84;144992;575;6002;-75
2021/05/26 02:42:08;;;;;;;6.00;2.90;;;;;;;22.48;49.76;101255.16;144993;639;6002;-75
2021/05/26 02:44:35;;;;;;;7.30;2.83;;;;;;;22.49;50.15;101252.50;144992;572;6002;-75
2021/05/26 02:47:01;;;;;;;7.47;3.28;;;;;;;22.48;49.96;101250.75;144993;610;6002;-75
2021/05/26 02:49:27;;;;;;;4.50;2.50;;;;;;;22.52;49.22;101254.25;144993;606;6002;-76
2021/05/26 02:51:54;;;;;;;5.75;2.70;;;;;;;22.43;49.45;101248.16;144993;585;6002;-76
2021/05/26 02:54:21;;;;;;;3.92;2.25;;;;;;;22.38;49.98;101250.00;144993;565;6002;-78
2021/05/26 02:56:47;;;;;;;6.07;2.75;;;;;;;22.35;49.91;101255.31;144993;594;6002;-77
2021/05/26 02:59:14;;;;;;;4.53;2.60;;;;;;;22.37;49.64;101256.16;144993;586;6002;-75
2021/05/26 03:01:42;;;;;;;5.50;2.72;;;;;;;22.39;49.45;101249.06;144992;636;6002;-75
2021/05/26 03:04:09;;;;;;;6.57;2.90;;;;;;;22.42;49.54;101251.69;144993;589;6002;-75
2021/05/26 03:06:36;;;;;;;9.65;2.72;;;;;;;22.43;49.65;101249.91;144993;647;6002;-76
2021/05/26 03:09:03;;;;;;;4.85;2.50;;;;;;;22.44;49.82;101251.66;144993;563;6002;-75
2021/05/26 03:11:30;;;;;;;7.07;2.65;;;;;;;22.47;49.71;101249.00;144993;682;6002;-76
2021/05/26 03:13:57;;;;;;;5.62;2.92;;;;;;;22.48;49.56;101247.22;144992;574;6002;-76
2021/05/26 03:16:23;;;;;;;4.78;3.08;;;;;;;22.48;49.58;101249.84;144992;569;6002;-76
2021/05/26 03:18:50;;;;;;;7.35;2.72;;;;;;;22.49;49.00;101252.50;144992;586;6002;-76
2021/05/26 03:21:17;;;;;;;5.95;2.60;;;;;;;22.51;49.42;101247.19;144992;565;6002;-76
2021/05/26 03:23:43;;;;;;;7.18;2.72;;;;;;;22.52;49.04;101243.66;144992;658;6002;-76
2021/05/26 03:26:11;;;;;;;5.82;2.97;;;;;;;22.52;49.25;101248.94;144992;609;6002;-75
2021/05/26 03:28:38;;;;;;;5.80;3.37;;;;;;;22.54;49.24;101255.09;144992;613;6002;-75
2021/05/26 03:31:05;;;;;;;7.25;2.87;;;;;;;22.56;49.31;101256.84;144993;574;6002;-76
2021/05/26 03:33:31;;;;;;;7.07;2.75;;;;;;;22.57;49.57;101255.06;144993;677;6002;-77
2021/05/26 03:35:58;;;;;;;6.50;2.97;;;;;;;22.58;49.46;101262.97;144993;585;6002;-74
2021/05/26 03:38:24;;;;;;;7.47;3.03;;;;;;;22.63;49.35;101247.06;144993;569;6002;-75
2021/05/26 03:40:51;;;;;;;7.53;3.00;;;;;;;22.68;49.21;101260.22;144993;603;6002;-75
2021/05/26 03:43:17;;;;;;;7.50;3.33;;;;;;;22.70;49.13;101256.69;144993;578;6002;-75
2021/05/26 03:45:44;;;;;;;8.48;2.80;;;;;;;22.74;49.47;101253.09;144993;678;6002;-76
2021/05/26 03:48:10;;;;;;;8.23;2.97;;;;;;;22.76;49.16;101253.94;144993;651;6002;-75
2021/05/26 03:50:36;;;;;;;5.53;3.15;;;;;;;22.78;49.33;101254.81;144993;627;6002;-75
2021/05/26 03:53:04;;;;;;;7.65;3.10;;;;;;;22.79;48.95;101256.53;144993;586;6002;-75
2021/05/26 03:55:32;;;;;;;7.95;3.42;;;;;;;22.80;48.99;101255.66;144993;629;6002;-74
2021/05/26 03:57:58;;;;;;;11.25;3.47;;;;;;;22.81;49.31;101260.06;144993;573;6002;-74
2021/05/26 04:00:25;;;;;;;7.65;3.50;;;;;;;22.71;49.34;101255.75;144993;608;6002;-75
2021/05/26 04:02:51;;;;;;;6.62;3.53;;;;;;;22.71;49.07;101250.47;144993;574;6002;-75
2021/05/26 04:05:18;;;;;;;8.00;3.78;;;;;;;22.73;49.19;101248.72;144993;569;6002;-75
2021/05/26 04:07:44;;;;;;;6.18;3.97;;;;;;;22.77;49.46;101254.84;144993;599;6002;-74
2021/05/26 04:10:11;;;;;;;10.02;3.70;;;;;;;22.77;49.62;101247.75;144993;571;6002;-74
2021/05/26 04:12:38;;;;;;;5.72;2.92;;;;;;;22.79;49.80;101253.91;144993;607;6002;-77
2021/05/26 04:15:06;;;;;;;10.02;3.40;;;;;;;22.82;49.56;101253.84;144993;575;6002;-75
2021/05/26 04:17:33;;;;;;;7.57;2.90;;;;;;;22.86;49.70;101259.12;144993;665;6002;-75
2021/05/26 04:20:03;;;;;;;7.10;3.00;;;;;;;22.88;49.07;101252.06;144993;630;6002;-74
2021/05/26 04:22:34;;;;;;;7.85;3.47;;;;;;;22.89;49.06;101249.38;144994;569;5002;-75
2021/05/26 04:25:03;;;;;;;7.85;3.72;;;;;;;22.92;49.45;101249.34;144994;573;5002;-75
2021/05/26 04:27:29;;;;;;;9.13;3.50;;;;;;;22.95;49.28;101257.22;144994;571;5002;-75
2021/05/26 04:29:56;;;;;;;6.93;3.60;;;;;;;22.94;48.89;101250.19;144994;625;5002;-73
2021/05/26 04:32:23;;;;;;;13.05;6.28;;;;;;;22.94;49.04;101249.31;144994;574;5002;-72
2021/05/26 04:34:49;;;;;;;9.48;5.40;;;;;;;22.98;49.21;101243.94;144994;621;5002;-73
2021/05/26 04:37:17;;;;;;;8.93;5.03;;;;;;;23.04;49.35;101255.38;144994;620;5002;-73
2021/05/26 04:39:44;;;;;;;7.72;3.92;;;;;;;23.09;48.89;101246.50;144994;593;5002;-75
2021/05/26 04:42:11;;;;;;;8.73;3.20;;;;;;;23.15;48.78;101248.19;144994;575;5002;-72
2021/05/26 04:44:37;;;;;;;6.45;3.30;;;;;;;23.20;49.10;101245.47;144994;582;5002;-74
2021/05/26 04:47:04;;;;;;;6.18;3.35;;;;;;;23.25;48.73;101252.44;144993;591;5003;-74
2021/05/26 04:49:30;;;;;;;9.07;3.20;;;;;;;23.31;48.60;101256.78;144994;678;5002;-74
2021/05/26 04:51:57;;;;;;;9.93;3.60;;;;;;;23.34;48.58;101252.31;144994;569;5002;-73
2021/05/26 04:54:23;;;;;;;7.87;3.42;;;;;;;23.40;48.46;101256.66;144994;591;5002;-75
2021/05/26 04:56:53;;;;;;;6.30;3.12;;;;;;;23.45;48.47;101259.22;144994;624;5002;-75
2021/05/26 04:59:19;;;;;;;6.68;3.28;;;;;;;23.49;48.40;101258.28;144994;589;5002;-74
2021/05/26 05:01:46;;;;;;;7.45;3.22;;;;;;;23.55;48.42;101264.34;144994;637;5002;-74
2021/05/26 05:04:13;;;;;;;7.53;3.42;;;;;;;23.60;48.66;101268.72;144994;573;5002;-75
2021/05/26 05:06:39;;;;;;;10.95;3.60;;;;;;;23.65;48.46;101265.06;144994;652;5002;-75
2021/05/26 05:09:10;;;;;;;6.57;3.45;;;;;;;23.70;48.40;101273.84;144994;569;5002;-74
2021/05/26 05:11:37;;;;;;;13.25;5.03;;;;;;;23.72;48.27;101261.44;144994;585;5002;-74
2021/05/26 05:14:04;;;;;;;15.82;4.95;;;;;;;23.58;47.72;101267.87;144994;575;5002;-75
2021/05/26 05:16:32;;;;;;;12.82;5.30;;;;;;;23.38;48.87;101274.31;144994;594;5002;-74
2021/05/26 05:18:59;;;;;;;7.57;4.62;;;;;;;23.46;48.67;101276.88;144994;596;5002;-74
2021/05/26 05:21:27;;;;;;;9.32;4.78;;;;;;;23.53;49.24;101282.06;144994;696;5002;-75
2021/05/26 05:23:56;;;;;;;11.23;4.75;;;;;;;23.64;49.68;101283.66;144994;569;5002;-75
2021/05/26 05:26:23;;;;;;;11.82;4.97;;;;;;;23.67;49.26;101280.94;144994;569;5002;-73
2021/05/26 05:28:50;;;;;;;11.77;4.95;;;;;;;23.64;49.59;101286.31;144994;612;5002;-74
2021/05/26 05:31:16;;;;;;;12.05;5.57;;;;;;;23.55;50.52;101274.09;144994;582;5002;-75
2021/05/26 05:33:43;;;;;;;7.80;4.82;;;;;;;23.61;49.65;101281.94;144994;565;5002;-75
2021/05/26 05:36:12;;;;;;;7.72;4.82;;;;;;;23.47;50.40;101289.22;144994;584;5002;-76
2021/05/26 05:38:38;;;;;;;8.70;5.18;;;;;;;23.38;52.23;101295.53;144994;565;5002;-74
2021/05/26 05:41:05;;;;;;;10.88;5.68;;;;;;;23.40;50.59;101292.84;144994;613;5002;-75
2021/05/26 05:43:31;;;;;;;13.10;5.20;;;;;;;23.52;50.27;101293.53;144993;662;5002;-75
2021/05/26 05:45:58;;;;;;;12.95;5.70;;;;;;;23.50;51.15;101297.13;144994;569;5002;-74
2021/05/26 05:48:25;;;;;;;10.20;4.87;;;;;;;23.51;50.75;101296.22;144994;569;5002;-73
2021/05/26 05:50:51;;;;;;;14.75;5.75;;;;;;;23.58;50.71;101291.72;144994;588;5002;-74
2021/05/26 05:53:18;;;;;;;13.93;6.35;;;;;;;23.33;51.63;101295.59;144994;622;5002;-74
2021/05/26 05:55:45;;;;;;;14.77;6.45;;;;;;;23.53;50.83;101297.97;144994;580;5002;-74
2021/05/26 05:58:12;;;;;;;14.50;6.50;;;;;;;23.42;51.29;101293.72;144994;592;5002;-74
2021/05/26 06:00:39;;;;;;;13.85;6.40;;;;;;;23.40;50.92;101292.84;144994;590;5002;-74
2021/05/26 06:03:05;;;;;;;12.75;7.18;;;;;;;23.44;51.15;101300.72;144994;629;5002;-75
2021/05/26 06:05:35;;;;;;;15.77;7.05;;;;;;;23.49;51.05;101301.53;144994;577;5002;-75
2021/05/26 06:08:01;;;;;;;14.55;6.60;;;;;;;23.65;50.73;101303.97;144994;574;5002;-76
2021/05/26 06:10:28;;;;;;;12.27;6.07;;;;;;;23.58;52.24;101308.50;144994;591;5002;-74
2021/05/26 06:12:56;;;;;;;11.48;6.32;;;;;;;23.50;52.04;101303.28;144994;605;5002;-76
2021/05/26 06:15:23;;;;;;;16.48;6.18;;;;;;;23.62;51.40;101312.81;144994;588;5002;-74
2021/05/26 06:17:49;;;;;;;14.35;6.75;;;;;;;23.60;51.33;101308.47;144994;598;5002;-74
2021/05/26 06:20:16;;;;;;;15.23;7.57;;;;;;;23.66;51.22;101311.03;144994;579;5002;-76
2021/05/26 06:22:45;;;;;;;11.95;6.78;;;;;;;23.78;51.06;101299.34;144994;588;5002;-75
2021/05/26 06:25:12;;;;;;;14.35;8.27;;;;;;;23.92;50.95;101305.34;144994;630;5002;-74
2021/05/26 06:27:39;;;;;;;14.50;7.72;;;;;;;24.06;50.81;101305.97;144994;601;5002;-75
2021/05/26 06:30:06;;;;;;;17.50;7.82;;;;;;;24.20;50.37;101300.44;144994;583;5002;-74
2021/05/26 06:32:33;;;;;;;13.90;7.43;;;;;;;24.25;50.54;101301.22;144994;637;5002;-75
2021/05/26 06:34:59;;;;;;;14.73;7.40;;;;;;;24.40;50.70;101293.88;144994;699;5002;-77
2021/05/26 06:37:25;;;;;;;17.02;7.28;;;;;;;24.38;51.25;101290.41;144994;566;5002;-76
2021/05/26 06:39:52;;;;;;;12.80;6.30;;;;;;;24.49;50.59;101292.84;144994;601;5002;-74
2021/05/26 06:42:18;;;;;;;11.82;6.47;;;;;;;24.61;50.17;101290.00;144994;664;5002;-76
2021/05/26 06:44:45;;;;;;;12.32;5.68;;;;;;;24.55;51.53;101290.94;144994;566;5002;-76
2021/05/26 06:47:11;;;;;;;12.35;5.78;;;;;;;24.53;51.36;101290.13;144994;564;5002;-75
2021/05/26 06:49:38;;;;;;;10.25;5.80;;;;;;;24.38;53.46;101290.41;144994;586;5002;-74
2021/05/26 06:52:05;;;;;;;9.38;5.87;;;;;;;24.43;51.87;101283.22;144994;569;5002;-76
2021/05/26 06:54:31;;;;;;;12.10;6.00;;;;;;;24.38;52.77;101293.91;144994;636;5002;-76
2021/05/26 06:56:58;;;;;;;10.07;5.43;;;;;;;24.36;52.50;101287.78;144994;580;5002;-76
2021/05/26 06:59:24;;;;;;;10.65;5.85;;;;;;;24.47;52.06;101290.22;144994;603;5002;-77
2021/05/26 07:01:51;;;;;;;10.77;6.18;;;;;;;24.45;52.50;101284.94;144994;569;5002;-77
2021/05/26 07:04:17;;;;;;;10.73;5.65;;;;;;;24.28;54.49;101292.34;144994;585;5002;-76
2021/05/26 07:06:44;;;;;;;11.98;5.70;;;;;;;24.37;52.95;101289.53;144994;574;5002;-75
2021/05/26 07:09:10;;;;;;;7.85;5.32;;;;;;;24.35;53.34;101288.66;144994;595;5002;-75
2021/05/26 07:11:37;;;;;;;7.25;4.95;;;;;;;24.21;53.62;101288.94;144994;577;5002;-74
2021/05/26 07:14:03;;;;;;;9.95;5.05;;;;;;;24.23;53.83;101292.44;144994;597;5002;-76
2021/05/26 07:16:30;;;;;;;9.25;5.43;;;;;;;24.32;53.23;101295.81;144994;582;5002;-76
2021/05/26 07:19:00;;;;;;;8.13;5.43;;;;;;;24.24;53.59;101288.00;144994;621;5002;-75
2021/05/26 07:21:27;;;;;;;10.02;5.72;;;;;;;24.24;54.90;101293.28;144994;590;5002;-75
2021/05/26 07:23:56;;;;;;;7.75;5.10;;;;;;;23.87;55.81;101293.94;144994;571;5002;-75
2021/05/26 07:26:25;;;;;;;10.70;5.35;;;;;;;24.04;54.63;101285.72;144994;565;5002;-75
2021/05/26 07:28:51;;;;;;;12.85;5.40;;;;;;;24.00;55.23;101290.16;144994;580;5002;-75
2021/05/26 07:31:18;;;;;;;10.20;5.45;;;;;;;24.01;56.14;101294.56;144994;581;5002;-76
2021/05/26 07:33:45;;;;;;;8.20;5.00;;;;;;;23.85;57.05;101296.59;144994;570;5002;-76
2021/05/26 07:36:12;;;;;;;8.55;5.50;;;;;;;23.93;56.82;101288.53;144994;597;5002;-76
2021/05/26 07:38:39;;;;;;;11.77;6.15;;;;;;;23.91;56.93;101290.34;144994;650;5002;-75
2021/05/26 07:41:07;;;;;;;9.25;5.10;;;;;;;23.88;56.43;101285.09;144994;575;5002;-76
2021/05/26 07:43:35;;;;;;;11.00;5.85;;;;;;;23.84;56.82;101283.38;144993;592;5002;-75
2021/05/26 07:46:06;;;;;;;8.20;5.40;;;;;;;23.93;56.27;101277.94;144994;570;5002;-75
2021/05/26 07:48:43;;;;;;;10.63;4.87;;;;;;;24.20;54.75;101271.25;144994;646;5002;-74
2021/05/26 07:51:18;;;;;;;6.43;4.95;;;;;;;24.22;54.89;101280.06;144994;581;5002;-77
2021/05/26 07:53:44;;;;;;;15.05;5.60;;;;;;;24.29;54.43;101282.59;144994;566;5002;-76
2021/05/26 07:56:11;;;;;;;11.55;5.95;;;;;;;24.25;53.35;101284.44;144994;667;5002;-76
2021/05/26 07:58:38;;;;;;;11.93;5.80;;;;;;;24.29;54.30;101287.91;144994;629;5002;-77
2021/05/26 08:01:05;;;;;;;10.55;5.78;;;;;;;24.39;54.94;101286.84;144994;565;5002;-75
2021/05/26 08:03:32;;;;;;;8.10;5.40;;;;;;;24.36;55.61;101298.37;144994;579;5002;-75
2021/05/26 08:05:58;;;;;;;9.05;5.43;;;;;;;24.32;55.47;101290.50;144994;611;5002;-74
2021/05/26 08:08:24;;;;;;;7.95;5.47;;;;;;;24.34;55.69;101288.69;144994;649;5002;-74
2021/05/26 08:10:51;;;;;;;9.75;6.07;;;;;;;24.19;56.19;101292.50;144994;601;5002;-74
2021/05/26 08:13:17;;;;;;;7.40;5.50;;;;;;;23.98;56.77;101299.06;144994;575;5002;-75
2021/05/26 08:15:44;;;;;;;9.40;5.25;;;;;;;24.01;55.88;101296.38;144994;585;5002;-75
2021/05/26 08:18:12;;;;;;;11.15;5.70;;;;;;;23.92;58.05;101302.69;144994;638;5002;-74
2021/05/26 08:20:41;;;;;;;12.07;5.50;;;;;;;24.03;56.78;101297.22;144994;641;5002;-75
2021/05/26 08:23:08;;;;;;;7.53;5.10;;;;;;;24.18;56.03;101290.75;144994;671;5002;-75
2021/05/26 08:25:34;;;;;;;10.77;5.03;;;;;;;24.23;56.07;101291.56;144994;612;5002;-76
2021/05/26 08:28:04;;;;;;;7.55;5.22;;;;;;;24.26;55.09;101295.03;144993;576;5002;-74
2021/05/26 08:30:30;;;;;;;11.40;4.93;;;;;;;24.31;55.22;101291.41;144994;581;5002;-74
2021/05/26 08:32:57;;;;;;;7.90;5.05;;;;;;;24.39;54.41;101293.03;144994;571;5002;-76
2021/05/26 08:35:23;;;;;;;7.53;4.85;;;;;;;24.66;53.51;101287.22;144994;581;5002;-76
2021/05/26 08:37:50;;;;;;;9.68;5.15;;;;;;;24.51;53.39;101283.94;144994;574;5002;-78
2021/05/26 08:40:18;;;;;;;11.18;4.82;;;;;;;24.55;54.80;101295.41;144994;564;5002;-76
2021/05/26 08:42:46;;;;;;;10.10;4.68;;;;;;;24.68;54.34;101290.75;144994;626;5002;-77
2021/05/26 08:45:15;;;;;;;10.88;4.80;;;;;;;24.64;54.39;101289.91;144994;598;5003;-74
2021/05/26 08:47:45;;;;;;;8.23;4.80;;;;;;;24.53;53.82;101289.22;144994;617;5002;-76
2021/05/26 08:50:14;;;;;;;10.35;5.45;;;;;;;24.49;54.84;101287.53;144994;569;5002;-75
2021/05/26 08:52:41;;;;;;;10.43;5.07;;;;;;;24.68;53.89;101280.13;144994;613;5002;-74
2021/05/26 08:55:13;;;;;;;8.65;4.97;;;;;;;24.53;53.90;101282.16;144994;626;4578;-76
2021/05/26 08:57:40;;;;;;;11.65;5.25;;;;;;;24.74;53.37;101282.66;144994;594;4572;-74
2021/05/26 09:00:08;;;;;;;11.32;5.37;;;;;;;24.75;53.06;101271.13;144994;662;4571;-76
2021/05/26 09:02:35;;;;;;;9.88;5.35;;;;;;;24.66;52.81;101280.16;144992;584;6002;-77
2021/05/26 09:05:01;;;;;;;10.05;4.97;;;;;;;24.63;51.85;101281.09;144992;586;6002;-75
2021/05/26 09:07:32;;;;;;;9.77;5.43;;;;;;;24.66;51.17;101282.81;144992;569;6002;-76
2021/05/26 09:10:01;;;;;;;12.52;5.25;;;;;;;24.70;51.57;101288.94;144992;582;6002;-76
2021/05/26 09:12:40;;;;;;;9.38;4.82;;;;;;;24.80;50.99;101279.84;144992;590;6002;-75
2021/05/26 09:15:17;;;;;;;8.20;4.90;;;;;;;24.88;50.76;101288.56;144992;573;6002;-76
2021/05/26 09:17:55;;;;;;;9.40;4.95;;;;;;;24.97;50.30;101284.81;144992;600;6002;-76
2021/05/26 09:20:45;;;;;;;11.65;5.62;;;;;;;25.08;50.60;101284.59;144992;638;6002;-77
2021/05/26 09:23:25;;;;;;;8.48;4.53;;;;;;;25.11;50.77;101276.56;144992;579;6004;-74
2021/05/26 09:25:55;;;;;;;7.93;4.62;;;;;;;25.12;49.72;101278.34;144992;581;6004;-75
2021/05/26 09:28:24;;;;;;;8.25;4.70;;;;;;;25.04;49.21;101274.94;144992;649;6004;-75
2021/05/26 09:30:56;;;;;;;8.40;4.80;;;;;;;25.14;48.64;101276.50;144992;573;6004;-75
2021/05/26 09:33:44;;;;;;;8.52;3.80;;;;;;;25.18;49.12;101270.19;144992;567;6004;-76
2021/05/26 09:36:21;;;;;;;12.23;5.75;;;;;;;25.33;47.85;101251.28;144992;594;6004;-74
2021/05/26 09:38:58;;;;;;;7.60;4.43;;;;;;;25.54;48.44;101254.34;144992;577;6004;-75
2021/05/26 09:41:36;;;;;;;6.45;3.87;;;;;;;25.39;47.53;101254.72;144992;649;6004;-73
2021/05/26 09:44:14;;;;;;;6.22;3.28;;;;;;;25.48;47.45;101249.19;144992;610;6004;-76
2021/05/26 09:46:46;;;;;;;6.57;3.72;;;;;;;25.40;46.82;101252.00;144992;625;6004;-75
2021/05/26 09:49:21;;;;;;;6.82;3.42;;;;;;;25.43;45.82;101240.44;144992;630;6004;-75
2021/05/26 09:51:55;;;;;;;6.32;3.87;;;;;;;25.43;45.64;101245.78;144992;566;6004;-76
2021/05/26 09:54:27;;;;;;;8.02;4.15;;;;;;;25.21;47.89;101243.56;144992;688;6004;-75
2021/05/26 09:57:13;;;;;;;8.13;4.72;;;;;;;25.12;49.24;101251.78;144992;611;6004;-75
2021/05/26 09:59:41;;;;;;;7.35;4.70;;;;;;;25.24;49.35;101246.16;144992;622;6004;-74
2021/05/26 10:02:09;;;;;;;7.53;5.05;;;;;;;25.28;50.98;101245.22;144992;619;6004;-74
2021/05/26 10:04:41;;;;;;;11.73;4.95;;;;;;;25.24;52.31;101239.97;144992;632;6004;-76
2021/05/26 10:07:08;;;;;;;6.68;4.72;;;;;;;25.52;50.21;101245.56;144992;587;6004;-75
2021/05/26 10:09:36;;;;;;;10.43;5.43;;;;;;;25.52;50.46;101237.56;144992;571;6004;-77
2021/05/26 10:12:03;;;;;;;9.57;4.25;;;;;;;25.42;49.46;101239.59;144992;580;6004;-74
2021/05/26 10:14:35;;;;;;;8.02;4.20;;;;;;;25.50;49.68;101234.97;144992;627;6005;-75
2021/05/26 10:17:03;;;;;;;7.85;4.75;;;;;;;25.56;49.99;101233.06;144992;571;6004;-75
2021/05/26 10:19:30;;;;;;;9.00;4.03;;;;;;;25.75;48.92;101229.00;144992;573;6004;-75
2021/05/26 10:21:57;;;;;;;5.03;3.10;;;;;;;25.70;48.32;101220.28;144992;567;6005;-76
2021/05/26 10:24:24;;;;;;;8.25;3.75;;;;;;;25.71;46.07;101214.06;144992;588;6004;-77
2021/05/26 10:26:59;;;;;;;9.93;3.70;;;;;;;25.87;46.54;101214.56;144992;593;6004;-77
2021/05/26 10:29:43;;;;;;;5.82;3.12;;;;;;;26.05;47.34;101210.56;144992;598;6005;-76
2021/05/26 10:32:27;;;;;;;9.83;3.60;;;;;;;26.23;46.87;101214.50;144992;625;6002;-75
2021/05/26 10:35:05;;;;;;;8.88;3.37;;;;;;;26.24;45.82;101208.25;144992;609;6002;-74
2021/05/26 10:37:34;;;;;;;11.15;4.57;;;;;;;26.19;46.71;101207.53;144992;620;6004;-76
2021/05/26 10:40:02;;;;;;;11.75;3.95;;;;;;;26.30;46.38;101205.44;144992;610;6004;-76
2021/05/26 10:42:34;;;;;;;8.73;3.28;;;;;;;26.27;45.31;101200.19;144992;591;6004;-75
2021/05/26 10:45:06;;;;;;;4.87;3.42;;;;;;;26.27;45.79;101196.66;144992;585;6004;-76
2021/05/26 10:47:43;;;;;;;16.77;3.42;;;;;;;26.43;46.50;101190.84;144992;909;6004;-74
2021/05/26 10:50:54;;;;;;;6.47;3.50;;;;;;;26.51;46.14;101205.75;144992;588;6004;-76
2021/05/26 10:53:23;;;;;;;6.22;3.30;;;;;;;26.56;46.11;101195.81;144992;564;6002;-75
2021/05/26 10:55:51;;;;;;;9.20;3.72;;;;;;;26.53;45.74;101199.44;144992;581;6002;-75
2021/05/26 10:58:41;;;;;;;4.50;3.33;;;;;;;26.35;45.44;101187.53;144992;576;6002;-75
2021/05/26 11:01:12;;;;;;;7.35;4.07;;;;;;;26.41;46.37;101186.50;144992;911;6002;-75
2021/05/26 11:03:45;;;;;;;5.32;3.70;;;;;;;26.54;46.75;101192.34;144992;565;6002;-75
2021/05/26 11:06:34;;;;;;;6.07;3.28;;;;;;;26.42;47.18;101189.13;144992;599;6002;-75
2021/05/26 11:09:01;;;;;;;7.93;3.78;;;;;;;26.53;47.19;101185.25;144992;587;6004;-75
2021/05/26 11:11:47;;;;;;;9.20;3.62;;;;;;;26.35;47.04;101182.22;144992;600;6004;-75
2021/05/26 11:14:25;;;;;;;8.27;5.78;;;;;;;26.36;47.49;101189.28;144992;589;6002;-75
2021/05/26 11:17:26;;;;;;;8.25;3.83;;;;;;;26.24;47.43;101176.31;144992;574;6002;-75
2021/05/26 11:20:13;;;;;;;6.10;3.40;;;;;;;26.13;47.78;101183.75;144992;566;6004;-75
2021/05/26 11:22:39;;;;;;;5.32;2.95;;;;;;;26.26;47.01;101177.16;144992;584;6004;-76
2021/05/26 11:25:15;;;;;;;6.15;3.05;;;;;;;26.31;47.74;101180.56;144992;908;6004;-76
2021/05/26 11:27:51;;;;;;;5.20;3.35;;;;;;;26.20;49.70;101179.97;144992;573;6004;-74
2021/05/26 11:30:21;;;;;;;5.68;3.12;;;;;;;26.09;49.63;101174.09;144992;599;6004;-74
2021/05/26 11:32:48;;;;;;;5.70;3.47;;;;;;;26.14;49.98;101164.22;144992;581;6004;-75
2021/05/26 11:35:14;;;;;;;4.72;4.12;;;;;;;26.13;51.85;101163.31;144992;753;6004;-75
2021/05/26 11:37:41;;;;;;;7.07;4.55;;;;;;;26.21;50.82;101160.44;144992;909;6004;-75
2021/05/26 11:40:28;;;;;;;6.65;4.85;;;;;;;26.28;51.34;101164.69;144992;562;6004;-75